Camp Douglas, WI (54637)

10:22 CDT le 25 mai 2015 (GMT -0500)
Volk | | Change Station
CLOSE
Current Station
Aéroport
Location: Volk,
Altitude: 909 ft
Stations météo à proximité

Alt. 909 ft 43.94 °N, 90.25 °W | Updated 24 minutes ago

Mostly Cloudy
Nuageux
66 ° F
Paraît 66 ° F
N
13
Vent Variable Vent de SO

Aujourd'hui
Haut(e) -- | Bas -- ° F
--% Risque de précip.
Hier
Haut(e) -- | Bas -- ° F
Precip. -- pouce
5:26 AM 8:30 PM
Lune montante, 49% visible
Pression 29.74 pouce
Visibilité 10.0 Miles terrestres
Nuages Peu 1500 ft
Nuageux 4100 ft
Point de rosée 66 ° F
Humidité 100%
Précipitations 0.09 pouce
Profondeur de la couche neigeuse Non disponible.
UV 4 sur 12
Pollen .90 sur 12
Qualité de l'air Non disponible.
Flu Activity Sporadic
METAR KVOK 251458Z AUTO 23011KT 10SM FEW015 BKN041 19/19 A2973 RMK AO2 DZE01RAB01E02DZB38E48RAB48E51 SLP069 P0000 60006 T01900190 53007

More Conditions Fewer Conditions

Pression 29.74 pouce
Visibilité 10.0 Miles terrestres
Nuages Peu 1500 ft
Nuageux 4100 ft
Point de rosée 66 ° F
Humidité 100%
Précipitations 0.09 pouce
Profondeur de la couche neigeuse Non disponible.
UV 4 sur 12
Pollen .90 sur 12
Qualité de l'air Non disponible.
Flu Activity Sporadic
METAR KVOK 251458Z AUTO 23011KT 10SM FEW015 BKN041 19/19 A2973 RMK AO2 DZE01RAB01E02DZB38E48RAB48E51 SLP069 P0000 60006 T01900190 53007

More Conditions Fewer Conditions

10-Day Weather Forecast

Almanac

Astronomie

May. 25, 2015 Lever Coucher
Temps réel
Crépuscule civil
Crépuscule nautique
Crépuscule astronomique
Lune
Durée de lumière visible
Longueur du jour
Tomorrow will be .
, % of the Moon is Illuminated

Extrêmes aujourd'hui

State Highs State Lows

Community

WunderPhotos

Upload Photos

1,824,029 Photos téléchargées !

WunderBlogs® & News

Nearby

Qualité de l'air

  Qualité de l'air Indice de la qualité de l'air Polluant
Not available.

Épaisseur de neige

Station Depth Altitude

Activité sismique

Ville Distance Mag. Time & Date
Minimum magnitude displayed is 2.5.

Températures des eaux côtières

Lieu Température

Stations

Stations météo à proximité

Emplacement de la station Température Refroidissement éolien Point de rosée Humidité Vent Precip. Alt. Mise à jour Type